< < Back
Terminal Aerodrome Forecast


Current Version              Previous Versions:   1  2  3  4  5  6  7  8  9  

Terminal Aerodrome Forecast

465
FTUS42 KGSP 032320
TAFAVL
TAF
KAVL 032320Z 0400/0424 18007KT P6SM SCT080 OVC110
     FM040300 20003KT P6SM BKN060
     FM041300 22003KT P6SM SCT070
     FM041800 18004KT P6SM BKN060=

Latest METAR

239
SAUS70 KWBC 040200 RRE
MTRAVL
METAR KAVL 040154Z 00000KT 10SM BKN075 18/08 A3022 RMK AO2 SLP216
T01780083


USA.gov is the U.S. government's official web portal to all federal, state and local government web resources and services.